This is the latest recevied weather packets stored in our database for station/object DL4NBA-1. If no packets are shown the sender has not sent any weather packets the latest 10 day(s).
| Time | Temp. | Humidity | Pressure | Rain* | Wind** | Luminosity | Snow |
|---|---|---|---|---|---|---|---|
| 1777558762 | 19.44° C | - | - | 0 mm | 4.02 m/s, 52° | - | - |
| 1777558463 | 18.33° C | - | - | 0 mm | 4.47 m/s, 17° | - | - |
| 1777558164 | 18.89° C | - | - | 0 mm | 4.47 m/s, 69° | - | - |
| 1777557862 | 18.33° C | - | - | 0 mm | 5.81 m/s, 23° | - | - |
| 1777557563 | 18.33° C | - | - | 0 mm | 3.13 m/s, 34° | - | - |
| 1777557265 | 21.11° C | - | - | 0 mm | 5.36 m/s, 90° | - | - |
| 1777556966 | 18.89° C | - | - | 0 mm | 4.02 m/s, 41° | - | - |
| 1777556667 | 17.22° C | - | - | 0 mm | 7.15 m/s, 20° | - | - |
| 1777556365 | 18.89° C | - | - | 0 mm | 4.92 m/s, 52° | - | - |
| 1777556066 | 18.89° C | - | - | 0 mm | 4.02 m/s, 30° | - | - |
| 1777555767 | 19.44° C | - | - | 0 mm | 4.02 m/s, 68° | - | - |
| 1777555468 | 18.89° C | - | - | 0 mm | 4.92 m/s, 48° | - | - |
| 1777555169 | 19.44° C | - | - | 0 mm | 5.81 m/s, 72° | - | - |
| 1777554868 | 17.78° C | - | - | 0 mm | 5.36 m/s, 31° | - | - |
| 1777554569 | 18.33° C | - | - | 0 mm | 5.36 m/s, 51° | - | - |
| 1777554269 | 19.44° C | - | - | 0 mm | 4.92 m/s, 91° | - | - |
| 1777553970 | 17.78° C | - | - | 0 mm | 7.6 m/s, 46° | - | - |
| 1777553671 | 17.78° C | - | - | 0 mm | 7.6 m/s, 45° | - | - |
| 1777553370 | 17.78° C | - | - | 0 mm | 3.13 m/s, 42° | - | - |
| 1777553071 | 17.78° C | - | - | 0 mm | 6.26 m/s, 46° | - | - |
| 1777552772 | 18.89° C | - | - | 0 mm | 4.47 m/s, 86° | - | - |
| 1777552473 | 19.44° C | - | - | 0 mm | 5.36 m/s, 101° | - | - |
| 1777552174 | 17.78° C | - | - | 0 mm | 5.81 m/s, 65° | - | - |
| 1777551873 | 18.33° C | - | - | 0 mm | 6.71 m/s, 63° | - | - |
| 1777551574 | 17.78° C | - | - | 0 mm | 4.92 m/s, 35° | - | - |
* Rain latest hour (hover to see other rain measurements)
** Current wind speed in m/s (hover to see current wind gust speed)